Myakka City, FL

10:35 AM EDT on October 23, 2014 (GMT -0400)
Dunson Myakka Grove | Change Station
CLOSE
Current Station
Personal Weather Station
Location: Myakka City, FL
Elevation: 69 ft
Nearby Weather Stations

Elev 69 ft 27.33 °N, 82.16 °W | Updated 1 minute ago

Clear
Clear
75.1 °F
Feels Like 77 °F
N
8.0
Wind Variable Wind from NNE
Gusts 14.0 mph

Today
High -- | Low -- °F
--% Chance of Precip.
Yesterday
High -- | Low -- °F
Precip. -- in
7:33 AM 6:52 PM
Waning Crescent, 0% visible
Pressure 29.97 in
Visibility 10.0 miles
Clouds Clear
Heat Index 77 °F
Dew Point 63 °F
Humidity 67%
Rainfall 0.00 in
Snow Depth Not available.
UV 3.1 out of 12
Pollen 6.40 out of 12
Air Quality Not available.
Flu Activity Local Activity
METAR KSRQ 231353Z AUTO 06014KT 10SM CLR 22/14 A2997 RMK AO2 SLP148 T02220144

More Conditions Fewer Conditions

Pressure 29.97 in
Visibility 10.0 miles
Clouds Clear
Heat Index 77 °F
Dew Point 63 °F
Humidity 67%
Rainfall 0.00 in
Snow Depth Not available.
UV 3.1 out of 12
Pollen 6.40 out of 12
Air Quality Not available.
Flu Activity Local Activity
METAR KSRQ 231353Z AUTO 06014KT 10SM CLR 22/14 A2997 RMK AO2 SLP148 T02220144

More Conditions Fewer Conditions

10-Day Weather Forecast

Almanac

Astronomy

Oct. 23, 2014 Rise Set
Actual Time 7:33 AM EDT 6:52 PM EDT
Civil Twilight 7:09 AM EDT 7:16 PM EDT
Nautical Twilight 6:42 AM EDT 7:43 PM EDT
Astronomical Twilight 6:15 AM EDT 8:10 PM EDT
Moon 7:13 AM EDT 6:53 PM EDT
Length of Visible Light 12h 06m
Length of Day
11h 19m
Tomorrow will be 1m 29s shorter.
Waning Crescent, 0% of the Moon is Illuminated
Today
Waning Crescent
Oct 23
New
Oct 30
First Quarter
Nov 6
Full
Nov 14
Last Quarter

Today's Extremes

State Highs State Lows

Community

WunderPhotos

Upload Photos

1,764,268 photos uploaded!

WunderBlogs® & News

Nearby

Snow Depth

Station Depth Elevation
No new snow has been reported.

Earthquake Activity

City Distance Mag. Time & Date
No recent earthquake activity has been reported nearby.
Minimum magnitude displayed is 2.5.

Coastal Water Temperatures

Place Temperature
Clearwater Beach, FL 77.0 °F
Port Manatee, FL 78.1 °F
St Petersburg, FL 81.0 °F
Old Port Tampa, FL 77.0 °F
McKay Bay Entrance, FL 80.1 °F

Nearby Weather Stations